Monday, October 23, 2017, 1:23 PM EDT
Back to Local

KPVC, Provincetown, Provincetown Municipal Airport

Location: Provincetown, MA, United States Lat: 42.067
Local Time: 1:23 PM EDT (17:23 GMT) Lon: -70.217
Time Zone: US/Eastern Elev: 6 ft

Show me the last for .
Show Coded

Time T Td Feel RH Dir Speed Gust Alt SLP Vis Weather Sky Remarks
2017-10-23 12:56 70 62 - 76 180° 10 - 30.31 30.31 10 CLR None
2017-10-23 11:56 69 61 - 75 170° 10 - 30.34 30.34 10 CLR None
2017-10-23 10:56 64 61 - 89 150° 8 - 30.36 30.36 10 FEW019 6-hr Precip Total (11am): 0.00"
2017-10-23 10:35 63 61 - 93 140° 8 - 30.37 - 10 FEW019 None
2017-10-23 09:56 60 60 - 100 130° 6 - 30.38 30.38 10 OVC019 None
2017-10-23 09:06 57 57 - 100 110° 5 - 30.40 - 3 BR BKN002 OVC019 None
2017-10-23 08:59 55 55 - 100 120° 3 - 30.40 - 1 BR OVC002 Variable visibility
2017-10-23 08:56 56 56 - 100 130° 5 - 30.40 30.40 0 BR OVC002 1-hr Precip Total: Trace
2017-10-23 08:53 55 55 - 100 130° 3 - 30.40 - 0 BR OVC002 1-hr Precip Total: Trace
2017-10-23 07:56 55 55 - 100 90° 5 - 30.40 30.40 0 -RA FG OVC002 1-hr Precip Total: Trace
6-hr Precip Total (8am): 0.01"
24-hr Precip Total (8am): 0.01"
6-hr Min Temp (8am): 50.0°F
6-hr Max Temp (8am): 55.9°F
2017-10-23 06:56 54 54 - 100 60° 6 - 30.39 30.38 0 -RA FG OVC002 1-hr Precip Total: Trace
2017-10-23 05:56 54 53 - 96 - Calm - 30.39 30.39 0 -RA FG OVC002 1-hr Precip Total: Trace
2017-10-23 04:56 51 51 - 100 - Calm - 30.39 30.39 0 -RA FG OVC002 1-hr Precip Total: Trace
6-hr Precip Total (5am): 0.01"
2017-10-23 03:56 53 53 - 100 - Calm - 30.38 30.38 0 -RA FG OVC002 1-hr Precip Total: 0.01"
2017-10-23 02:56 55 54 - 96 - Calm - 30.40 30.40 0 FG OVC002 1-hr Precip Total: Trace
2017-10-23 01:56 56 55 - 96 270° 5 - 30.41 30.41 0 -RA FG OVC002 1-hr Precip Total: Trace
6-hr Precip Total (2am): 0.00"
6-hr Min Temp (2am): 52.0°F
6-hr Max Temp (2am): 57.9°F
2017-10-23 01:35 55 55 - 100 260° 3 - 30.41 - 0 FG OVC002 1-hr Precip Total: Trace
2017-10-23 00:56 56 56 - 100 260° 5 - 30.42 30.41 0 -RA FG OVC002 1-hr Precip Total: Trace
24-hr Min Temp (1am): 50.0°F
24-hr Max Temp (1am): 66.9°F
2017-10-23 00:30 55 55 - 100 240° 6 - 30.41 - 0 -RA FG OVC002 1-hr Precip Total: Trace
2017-10-22 23:56 56 55 - 96 260° 5 - 30.41 30.41 0 FG OVC002 1-hr Precip Total: Trace
2017-10-22 23:29 57 57 - 100 230° 6 - 30.42 - 0 FG OVC002 None
2017-10-22 23:26 57 57 - 100 230° 7 - 30.42 - 1 BR OVC002 None
2017-10-22 23:08 57 57 - 100 210° 7 - 30.42 - 2 BR SCT002 None
2017-10-22 22:56 57 57 - 100 200° 6 - 30.42 30.42 7 CLR None
2017-10-22 21:56 58 57 - 96 190° 6 - 30.42 30.41 10 CLR None
2017-10-22 20:56 57 56 - 96 170° 6 - 30.41 30.41 10 CLR None
2017-10-22 19:56 52 50 - 92 - Calm - 30.41 30.40 10 CLR 6-hr Min Temp (8pm): 52.0°F
6-hr Max Temp (8pm): 66.0°F
2017-10-22 18:56 56 55 - 96 - Calm - 30.40 30.40 10 CLR None
2017-10-22 17:56 58 56 - 93 60° 5 - 30.40 30.40 10 CLR None
2017-10-22 16:56 61 56 - 83 60° 5 - 30.39 30.39 10 CLR None
2017-10-22 15:56 64 57 - 77 40° 7 - 30.39 30.39 10 CLR None
2017-10-22 14:56 64 55 - 72 30° 7 - 30.39 30.39 10 CLR None
2017-10-22 13:56 65 55 - 70 360° 5 - 30.40 30.40 10 CLR 6-hr Min Temp (2pm): 52.0°F
6-hr Max Temp (2pm): 66.9°F

Support USWX by starting your Amazon purchase here.